Time;durP1;ratioP1;P1;durP2;ratioP2;P2;SDS_P1;SDS_P2;PMS_P1;PMS_P2;Temp;Humidity;BMP_temperature;BMP_pressure;BME280_temperature;BME280_humidity;BME280_pressure;Samples;Min_cycle;Max_cycle;Signal;HPM_P1;HPM_P2
2023/04/04 00:00:07;;;;;;;1999.90;999.90;;;;;;;2.55;46.39;98009.56;5146334;27;20064;-85
2023/04/04 00:02:33;;;;;;;1999.90;999.90;;;;;;;2.49;46.22;97999.75;5147745;27;20079;-85
2023/04/04 00:04:58;;;;;;;1999.90;999.90;;;;;;;2.52;46.31;98015.44;5144433;27;20034;-82
2023/04/04 00:07:23;;;;;;;1999.90;999.90;;;;;;;2.49;46.20;98010.53;5145374;27;20378;-84
2023/04/04 00:09:49;;;;;;;1999.90;999.90;;;;;;;2.40;46.37;98006.59;5146448;27;20019;-85
2023/04/04 00:12:15;;;;;;;1999.90;999.90;;;;;;;2.36;46.55;97994.63;5143490;27;20043;-84
2023/04/04 00:14:40;;;;;;;1999.90;999.90;;;;;;;2.41;46.63;98013.63;5141900;27;20495;-82
2023/04/04 00:17:05;;;;;;;1999.90;999.90;;;;;;;2.34;46.88;97991.38;5140706;27;20356;-84
2023/04/04 00:19:31;;;;;;;1999.90;999.90;;;;;;;2.31;47.09;97997.25;5144380;27;20031;-84
2023/04/04 00:21:56;;;;;;;1999.90;999.90;;;;;;;2.27;46.93;98006.88;5143293;27;20023;-82
2023/04/04 00:24:21;;;;;;;1999.90;999.90;;;;;;;2.32;46.73;98005.09;5140382;27;20027;-84
2023/04/04 00:26:47;;;;;;;1999.90;999.90;;;;;;;2.27;47.00;97994.22;5139982;27;20088;-85
2023/04/04 00:29:12;;;;;;;1999.90;999.90;;;;;;;2.22;47.27;97987.91;5139515;27;20575;-84
2023/04/04 00:31:38;;;;;;;1999.90;999.90;;;;;;;2.24;47.04;97996.56;5140415;27;20121;-77
2023/04/04 00:34:03;;;;;;;1999.90;999.90;;;;;;;2.24;47.00;97999.28;5141449;27;20019;-84
2023/04/04 00:36:28;;;;;;;1999.90;999.90;;;;;;;2.17;47.09;97986.75;5145273;27;20054;-84
2023/04/04 00:38:54;;;;;;;1999.90;999.90;;;;;;;2.15;46.62;98012.34;5140730;27;20031;-80
2023/04/04 00:41:20;;;;;;;1999.90;999.90;;;;;;;2.24;46.74;98001.97;5138958;27;20459;-78
2023/04/04 00:43:45;;;;;;;1999.90;999.90;;;;;;;2.19;46.87;97991.09;5140057;27;20094;-80
2023/04/04 00:46:13;;;;;;;1999.90;999.90;;;;;;;2.20;46.45;97992.72;5138683;27;20033;-81
2023/04/04 00:48:41;;;;;;;1999.90;999.90;;;;;;;2.11;46.88;98003.06;5140859;27;20496;-83
2023/04/04 00:51:06;;;;;;;1999.90;999.90;;;;;;;2.11;46.75;97993.09;5141385;27;20035;-83
2023/04/04 00:53:32;;;;;;;1999.90;999.90;;;;;;;2.11;46.83;97993.09;5139777;27;20038;-82
2023/04/04 00:55:58;;;;;;;1999.90;999.90;;;;;;;2.07;46.84;97997.34;5141654;27;20023;-81
2023/04/04 00:58:25;;;;;;;1999.90;999.90;;;;;;;2.07;46.83;97991.13;5140579;27;20047;-80
2023/04/04 01:00:51;;;;;;;1999.90;999.90;;;;;;;2.11;46.80;98003.91;5140862;27;20023;-85
2023/04/04 01:03:17;;;;;;;1999.90;999.90;;;;;;;2.07;46.73;97981.16;5139885;27;20023;-81
2023/04/04 01:05:42;;;;;;;1999.90;999.90;;;;;;;2.00;47.13;97985.88;5139482;27;20031;-83
2023/04/04 01:08:08;;;;;;;1999.90;999.90;;;;;;;1.92;47.10;97971.94;5137709;27;20042;-83
2023/04/04 01:10:34;;;;;;;1999.90;999.90;;;;;;;1.92;47.51;97997.03;5140385;27;20538;-80
2023/04/04 01:13:00;;;;;;;1999.90;999.90;;;;;;;1.94;47.29;97997.59;5140519;27;20071;-83
2023/04/04 01:15:25;;;;;;;1999.90;999.90;;;;;;;1.87;47.08;97975.38;5140161;27;20088;-84
2023/04/04 01:17:55;;;;;;;1999.90;999.90;;;;;;;2.03;46.75;98000.78;5137650;27;20123;-83
2023/04/04 01:20:25;;;;;;;1999.90;999.90;;;;;;;2.02;46.69;97996.41;5137655;27;20160;-84
2023/04/04 01:22:52;;;;;;;1999.90;999.90;;;;;;;1.93;47.02;97987.91;5138172;27;20042;-81
2023/04/04 01:25:30;;;;;;;1999.90;999.90;;;;;;;1.92;46.88;97988.94;5137046;27;20520;-82
2023/04/04 01:27:57;;;;;;;1999.90;999.90;;;;;;;1.94;46.91;98000.31;5137329;27;20519;-81
2023/04/04 01:30:27;;;;;;;1999.90;999.90;;;;;;;1.99;46.33;98005.00;5137811;27;20056;-82
2023/04/04 01:33:05;;;;;;;1999.90;999.90;;;;;;;1.95;46.58;98001.13;5140549;27;20372;-83
2023/04/04 01:35:37;;;;;;;1999.90;999.90;;;;;;;1.97;46.51;97997.13;5140555;27;20031;-77
2023/04/04 01:38:23;;;;;;;1999.90;999.90;;;;;;;1.93;46.87;97990.59;5136398;27;20030;-83
2023/04/04 01:40:54;;;;;;;1999.90;999.90;;;;;;;1.87;46.93;97990.72;5136518;27;20100;-78
2023/04/04 01:43:19;;;;;;;1999.90;999.90;;;;;;;1.85;46.76;97990.94;5135480;27;20027;-84
2023/04/04 01:45:45;;;;;;;1999.90;999.90;;;;;;;1.89;46.66;97996.69;5137830;27;20108;-81
2023/04/04 01:48:11;;;;;;;1999.90;999.90;;;;;;;1.73;46.83;97962.38;5137169;27;20072;-82
2023/04/04 01:50:36;;;;;;;1999.90;999.90;;;;;;;1.77;47.21;97990.50;5136507;27;20039;-82
2023/04/04 01:53:02;;;;;;;1999.90;999.90;;;;;;;1.78;47.09;97984.06;5136819;27;20019;-83
2023/04/04 01:55:28;;;;;;;1999.90;999.90;;;;;;;1.77;46.87;97990.50;5137829;27;20102;-79
2023/04/04 01:57:54;;;;;;;1999.90;999.90;;;;;;;1.77;46.83;97969.78;5139098;27;20031;-79
2023/04/04 02:00:19;;;;;;;1999.90;999.90;;;;;;;1.74;46.97;97974.81;5138687;27;20056;-79
2023/04/04 02:02:45;;;;;;;1999.90;999.90;;;;;;;1.70;47.58;97979.03;5123183;27;20053;-79
2023/04/04 02:05:10;;;;;;;1999.90;999.90;;;;;;;1.58;48.00;97979.06;5138130;27;20027;-81
2023/04/04 02:07:36;;;;;;;1999.90;999.90;;;;;;;1.52;47.91;97970.06;5137133;27;20042;-81
2023/04/04 02:10:02;;;;;;;1999.90;999.90;;;;;;;1.52;47.54;97964.69;5116828;27;20702;-81
2023/04/04 02:12:28;;;;;;;1999.90;999.90;;;;;;;1.58;47.49;97977.19;5134703;27;20023;-81
2023/04/04 02:14:53;;;;;;;1999.90;999.90;;;;;;;1.56;47.84;97978.50;5133757;27;20027;-79
2023/04/04 02:17:19;;;;;;;1999.90;999.90;;;;;;;1.51;47.63;97968.41;5134545;27;20372;-82
2023/04/04 02:19:44;;;;;;;1999.90;999.90;;;;;;;1.50;47.87;97965.97;5133236;27;20082;-81
2023/04/04 02:22:10;;;;;;;1999.90;999.90;;;;;;;1.48;47.88;97962.69;5130877;27;20033;-81
2023/04/04 02:24:35;;;;;;;1999.90;999.90;;;;;;;1.47;47.82;97958.38;5132944;27;20062;-76
2023/04/04 02:27:01;;;;;;;1999.90;999.90;;;;;;;1.43;48.00;97957.19;5122017;27;20034;-82
2023/04/04 02:29:26;;;;;;;1999.90;999.90;;;;;;;1.34;48.21;97958.63;5111429;28;20035;-80
2023/04/04 02:31:52;;;;;;;1999.90;999.90;;;;;;;1.35;48.63;97961.06;5139557;27;20036;-81
2023/04/04 02:34:17;;;;;;;1999.90;999.90;;;;;;;1.27;48.79;97957.91;5153092;27;20030;-80
2023/04/04 02:36:43;;;;;;;1999.90;999.90;;;;;;;1.29;48.75;97959.31;5139218;27;20035;-80
2023/04/04 02:39:08;;;;;;;1999.90;999.90;;;;;;;1.25;48.79;97968.13;5121253;27;20076;-83
2023/04/04 02:41:34;;;;;;;1999.90;999.90;;;;;;;1.27;48.39;97961.44;5113132;28;20064;-82
2023/04/04 02:44:00;;;;;;;1999.90;999.90;;;;;;;1.31;48.44;97959.09;5130422;27;20019;-81
2023/04/04 02:46:25;;;;;;;1999.90;999.90;;;;;;;1.22;48.68;97955.94;5132930;27;20024;-80
2023/04/04 02:48:50;;;;;;;1999.90;999.90;;;;;;;1.24;48.49;97955.69;5132099;27;20031;-76
2023/04/04 02:51:16;;;;;;;1999.90;999.90;;;;;;;1.21;48.64;97950.78;5132007;27;20112;-75
2023/04/04 02:53:41;;;;;;;1999.90;999.90;;;;;;;1.17;48.78;97958.50;5132200;28;20100;-80
2023/04/04 02:56:07;;;;;;;1999.90;999.90;;;;;;;1.14;48.42;97944.69;5115870;28;20055;-78
2023/04/04 02:58:33;;;;;;;1999.90;999.90;;;;;;;1.16;48.50;97950.69;5111777;28;20035;-82
2023/04/04 03:00:58;;;;;;;1999.90;999.90;;;;;;;1.19;48.22;97944.81;5111494;28;20016;-83
2023/04/04 03:03:24;;;;;;;1999.90;999.90;;;;;;;1.14;48.78;97950.06;5111472;28;20027;-76
2023/04/04 03:05:50;;;;;;;1999.90;999.90;;;;;;;0.97;49.13;97940.00;5112066;28;20065;-81
2023/04/04 03:08:16;;;;;;;1999.90;999.90;;;;;;;1.08;48.55;97943.75;5092619;28;20051;-78
2023/04/04 03:10:41;;;;;;;1999.90;999.90;;;;;;;1.08;48.68;97944.59;5139732;27;20375;-82
2023/04/04 03:13:07;;;;;;;1999.90;999.90;;;;;;;1.04;48.84;97938.03;5156644;27;20479;-80
2023/04/04 03:15:33;;;;;;;1999.90;999.90;;;;;;;1.07;48.49;97942.94;5157609;27;20492;-76
2023/04/04 03:17:59;;;;;;;1999.90;999.90;;;;;;;1.02;48.90;97928.53;5156468;27;20026;-80
2023/04/04 03:20:25;;;;;;;1999.90;999.90;;;;;;;1.01;48.36;97933.09;5156752;27;20475;-76
2023/04/04 03:22:50;;;;;;;1999.90;999.90;;;;;;;1.05;48.15;97928.91;5156556;27;20063;-77
2023/04/04 03:25:16;;;;;;;1999.90;999.90;;;;;;;1.06;48.04;97925.16;5156564;27;20062;-76
2023/04/04 03:27:42;;;;;;;1999.90;999.90;;;;;;;1.00;48.58;97930.66;5157510;27;20031;-76
2023/04/04 03:30:08;;;;;;;1999.90;999.90;;;;;;;0.99;48.44;97929.84;5160843;27;20019;-80
2023/04/04 03:32:34;;;;;;;1999.90;999.90;;;;;;;0.94;48.44;97932.41;5157342;27;20580;-76
2023/04/04 03:35:00;;;;;;;1999.90;999.90;;;;;;;0.99;48.20;97926.31;5156754;27;20055;-75
2023/04/04 03:37:25;;;;;;;1999.90;999.90;;;;;;;1.03;48.44;97925.59;5156882;27;20091;-75
2023/04/04 03:39:51;;;;;;;1999.90;999.90;;;;;;;1.02;48.19;97926.69;5157758;27;20034;-79
2023/04/04 03:42:17;;;;;;;1999.90;999.90;;;;;;;1.03;48.42;97939.06;5160330;27;20026;-82
2023/04/04 03:44:44;;;;;;;1999.90;999.90;;;;;;;0.94;48.53;97932.41;5158129;27;20015;-75
2023/04/04 03:47:09;;;;;;;1999.90;999.90;;;;;;;0.97;48.46;97933.81;5156628;27;20075;-78
2023/04/04 03:49:35;;;;;;;1999.90;999.90;;;;;;;0.98;48.50;97944.34;5156848;27;20489;-77
2023/04/04 03:52:01;;;;;;;1999.90;999.90;;;;;;;0.88;48.54;97930.66;5138180;27;20051;-77
2023/04/04 03:54:28;;;;;;;1999.90;999.90;;;;;;;0.97;48.28;97941.91;5138293;27;20118;-76
2023/04/04 03:56:53;;;;;;;1999.90;999.90;;;;;;;0.95;48.10;97939.44;5156119;27;20050;-79
2023/04/04 03:59:20;;;;;;;1999.90;999.90;;;;;;;0.99;47.80;97937.91;5156309;27;20022;-77
2023/04/04 04:01:45;;;;;;;1999.90;999.90;;;;;;;0.97;48.06;97941.91;5156296;27;20019;-80
2023/04/04 04:04:11;;;;;;;1999.90;999.90;;;;;;;0.94;47.98;97935.09;5155319;27;20463;-77
2023/04/04 04:06:36;;;;;;;1999.90;999.90;;;;;;;1.01;48.01;97940.34;5155392;27;20038;-79
2023/04/04 04:09:02;;;;;;;1999.90;999.90;;;;;;;1.01;47.45;97945.75;5155211;27;20047;-80
2023/04/04 04:11:28;;;;;;;1999.90;999.90;;;;;;;0.97;47.60;97941.91;5155781;27;20063;-80
2023/04/04 04:13:54;;;;;;;1999.90;999.90;;;;;;;1.04;47.60;97953.34;5154677;27;20482;-78
2023/04/04 04:16:20;;;;;;;1999.90;999.90;;;;;;;1.00;47.50;97947.63;5144924;27;20038;-78
2023/04/04 04:18:46;;;;;;;1999.90;999.90;;;;;;;0.99;47.39;97943.31;5134492;27;20034;-75
2023/04/04 04:21:11;;;;;;;1999.90;999.90;;;;;;;0.94;47.65;97948.56;5134612;27;20020;-78
2023/04/04 04:23:38;;;;;;;1999.90;999.90;;;;;;;0.94;47.67;97962.00;5133293;27;20490;-77
2023/04/04 04:26:04;;;;;;;1999.90;999.90;;;;;;;0.99;47.43;97958.63;5128266;27;20479;-78
2023/04/04 04:28:29;;;;;;;1999.90;999.90;;;;;;;0.95;47.23;97952.91;5115332;27;20023;-76
2023/04/04 04:30:55;;;;;;;1999.90;999.90;;;;;;;0.96;47.30;97961.78;5119859;27;20027;-75
2023/04/04 04:33:28;;;;;;;1999.90;999.90;;;;;;;0.96;47.59;97965.31;5133534;27;20019;-77
2023/04/04 04:35:58;;;;;;;1999.90;999.90;;;;;;;0.91;47.83;97957.09;5133939;27;20019;-79
2023/04/04 04:38:23;;;;;;;1999.90;999.90;;;;;;;0.84;47.89;97953.72;5115122;27;20023;-81
2023/04/04 04:40:49;;;;;;;1999.90;999.90;;;;;;;0.92;47.87;97960.63;5133744;27;20391;-79
2023/04/04 04:43:14;;;;;;;1999.90;999.90;;;;;;;0.85;47.96;97947.25;5134290;27;20102;-80
2023/04/04 04:45:41;;;;;;;1999.90;999.90;;;;;;;0.93;47.68;97965.78;5134058;27;20052;-77
2023/04/04 04:48:06;;;;;;;1999.90;999.90;;;;;;;0.90;47.89;97960.88;5133938;27;20080;-76
2023/04/04 04:50:32;;;;;;;1999.90;999.90;;;;;;;0.98;47.48;97968.59;5133037;27;20041;-75
2023/04/04 04:52:57;;;;;;;1999.90;999.90;;;;;;;0.93;47.95;97967.66;5113601;28;20050;-76
2023/04/04 04:55:23;;;;;;;1999.90;999.90;;;;;;;1.02;47.56;97964.38;5126097;27;20099;-75
2023/04/04 04:57:48;;;;;;;1999.90;999.90;;;;;;;1.04;47.57;97969.50;5120647;27;20038;-75
2023/04/04 05:00:18;;;;;;;1999.90;999.90;;;;;;;1.06;47.79;97973.63;5138729;27;20491;-73
2023/04/04 05:02:43;;;;;;;1999.90;999.90;;;;;;;1.05;47.55;97961.22;5134309;27;20015;-78
2023/04/04 05:05:08;;;;;;;1999.90;999.90;;;;;;;1.12;47.67;97977.25;5132592;27;20080;-76
2023/04/04 05:07:34;;;;;;;1999.90;999.90;;;;;;;1.17;47.51;97976.53;5132499;27;20055;-75
2023/04/04 05:09:59;;;;;;;1999.90;999.90;;;;;;;1.16;47.28;97977.59;5132839;27;20041;-75
2023/04/04 05:12:25;;;;;;;1999.90;999.90;;;;;;;1.22;47.38;97977.50;5132646;27;20027;-73
2023/04/04 05:14:51;;;;;;;1999.90;999.90;;;;;;;1.21;47.43;97981.22;5132165;27;20030;-74
2023/04/04 05:17:16;;;;;;;1999.90;999.90;;;;;;;1.27;47.09;97980.28;5132592;27;20035;-73
2023/04/04 05:19:42;;;;;;;1999.90;999.90;;;;;;;1.28;46.64;97992.72;5132055;27;20524;-73
2023/04/04 05:22:07;;;;;;;1999.90;999.90;;;;;;;1.32;46.88;97982.25;5110339;28;20035;-74
2023/04/04 05:24:33;;;;;;;1999.90;999.90;;;;;;;1.30;46.61;97984.38;5128263;27;20015;-73
2023/04/04 05:27:01;;;;;;;1999.90;999.90;;;;;;;1.43;46.58;98005.69;5111760;27;20027;-73
2023/04/04 05:29:28;;;;;;;1999.90;999.90;;;;;;;1.51;46.32;98003.44;5130239;27;20034;-73
2023/04/04 05:31:53;;;;;;;1999.90;999.90;;;;;;;1.50;46.26;97990.22;5130532;27;20027;-73
2023/04/04 05:34:18;;;;;;;1999.90;999.90;;;;;;;1.65;45.76;97990.53;5130262;27;20019;-74
2023/04/04 05:36:44;;;;;;;1999.90;999.90;;;;;;;1.64;46.13;97999.69;5130828;27;20129;-74
2023/04/04 05:39:09;;;;;;;1999.90;999.90;;;;;;;1.67;45.84;97996.50;5131074;27;20023;-73
2023/04/04 05:41:35;;;;;;;1999.90;999.90;;;;;;;1.70;45.73;97985.25;5135167;27;20069;-74
2023/04/04 05:44:01;;;;;;;1999.90;999.90;;;;;;;1.73;45.59;98003.66;5131185;27;20026;-74
2023/04/04 05:46:27;;;;;;;1999.90;999.90;;;;;;;1.91;45.36;98010.78;5131042;27;20035;-75
2023/04/04 05:48:52;;;;;;;1999.90;999.90;;;;;;;1.87;45.50;98012.31;5131546;27;20023;-76
2023/04/04 05:51:17;;;;;;;1999.90;999.90;;;;;;;1.74;45.54;97996.38;5132103;27;20034;-74
2023/04/04 05:53:44;;;;;;;1999.90;999.90;;;;;;;1.90;45.42;98001.03;5132204;27;20019;-73
2023/04/04 05:56:10;;;;;;;1999.90;999.90;;;;;;;2.01;45.28;98011.78;5131187;27;20062;-74
2023/04/04 05:58:36;;;;;;;1999.90;999.90;;;;;;;2.10;44.92;98009.50;5131633;27;20027;-76
2023/04/04 06:01:08;;;;;;;1999.90;999.90;;;;;;;2.32;44.66;98012.41;5131779;27;20030;-76
2023/04/04 06:03:33;;;;;;;1999.90;999.90;;;;;;;2.33;44.70;98024.81;5113365;27;20022;-74
2023/04/04 06:06:03;;;;;;;1999.90;999.90;;;;;;;2.56;44.38;98020.13;5131231;27;20035;-75
2023/04/04 06:08:28;;;;;;;1999.90;999.90;;;;;;;2.61;43.82;98016.69;5131705;27;20531;-75
2023/04/04 06:10:54;;;;;;;1999.90;999.90;;;;;;;2.62;43.62;98021.03;5131195;27;20031;-74
2023/04/04 06:13:20;;;;;;;1999.90;999.90;;;;;;;2.72;43.44;98021.22;5131288;27;20015;-74
2023/04/04 06:15:47;;;;;;;1999.90;999.90;;;;;;;2.56;43.52;98016.63;5130312;27;20047;-74
2023/04/04 06:18:12;;;;;;;1999.90;999.90;;;;;;;2.62;43.48;98007.53;5131523;27;20499;-75
2023/04/04 06:20:37;;;;;;;1999.90;999.90;;;;;;;2.56;43.11;98013.91;5118247;27;20079;-73
2023/04/04 06:23:03;;;;;;;1999.90;999.90;;;;;;;2.40;43.65;98012.00;5111096;28;20415;-74
2023/04/04 06:25:30;;;;;;;1999.90;999.90;;;;;;;2.60;43.63;98012.38;5112321;28;20030;-75
2023/04/04 06:27:56;;;;;;;1999.90;999.90;;;;;;;2.70;43.68;98013.34;5092633;28;20076;-75
2023/04/04 06:30:21;;;;;;;1999.90;999.90;;;;;;;2.78;42.99;98014.03;5092419;28;20040;-74
2023/04/04 06:32:47;;;;;;;1999.90;999.90;;;;;;;2.85;43.18;98009.28;5121475;27;20023;-75
2023/04/04 06:35:12;;;;;;;1999.90;999.90;;;;;;;2.95;43.13;98010.25;5131697;27;20494;-75
2023/04/04 06:37:38;;;;;;;1999.90;999.90;;;;;;;3.26;42.77;98016.16;5112398;27;20108;-74
2023/04/04 06:40:04;;;;;;;1999.90;999.90;;;;;;;3.11;41.95;98009.44;5130178;27;20023;-76
2023/04/04 06:42:29;;;;;;;1999.90;999.90;;;;;;;3.11;42.30;98014.84;5131583;27;20042;-75
2023/04/04 06:44:55;;;;;;;1999.90;999.90;;;;;;;3.09;42.19;98014.28;5131247;27;20483;-75
2023/04/04 06:47:21;;;;;;;1999.90;999.90;;;;;;;3.09;41.86;98019.69;5131367;27;20054;-74
2023/04/04 06:49:46;;;;;;;1999.90;999.90;;;;;;;3.26;41.82;98018.88;5131778;27;20024;-75
2023/04/04 06:52:12;;;;;;;1999.90;999.90;;;;;;;3.24;41.90;98013.69;5131753;28;20083;-75
2023/04/04 06:54:38;;;;;;;1999.90;999.90;;;;;;;3.26;41.36;98013.47;5132229;27;20043;-76
2023/04/04 06:57:03;;;;;;;1999.90;999.90;;;;;;;3.32;41.39;98024.09;5132120;27;20471;-74
2023/04/04 06:59:28;;;;;;;1999.90;999.90;;;;;;;3.50;40.74;98025.72;5131508;27;20023;-75
2023/04/04 07:01:56;;;;;;;1999.90;999.90;;;;;;;3.53;40.74;98017.94;5131144;27;20023;-75
2023/04/04 07:04:21;;;;;;;1999.90;999.90;;;;;;;3.76;40.85;98016.88;5131421;27;20027;-74
2023/04/04 07:06:46;;;;;;;1999.90;999.90;;;;;;;4.02;40.57;98018.84;5131327;27;20361;-74
2023/04/04 07:09:12;;;;;;;1999.90;999.90;;;;;;;4.11;39.54;98011.09;5131004;27;20510;-75
2023/04/04 07:11:37;;;;;;;1999.90;999.90;;;;;;;3.96;39.71;98006.31;5131226;27;20131;-75
2023/04/04 07:14:03;;;;;;;1999.90;999.90;;;;;;;3.79;39.32;98002.84;5131281;28;20027;-75
2023/04/04 07:16:28;;;;;;;1999.90;999.90;;;;;;;4.16;38.98;98028.25;5131163;27;20487;-76
2023/04/04 07:18:54;;;;;;;1999.90;999.90;;;;;;;4.26;39.27;98016.72;5095811;28;20023;-75
2023/04/04 07:21:19;;;;;;;1999.90;999.90;;;;;;;4.09;38.71;98010.53;5131093;28;20110;-75
2023/04/04 07:23:45;;;;;;;1999.90;999.90;;;;;;;4.04;38.39;98018.63;5131190;27;20399;-75
2023/04/04 07:26:10;;;;;;;1999.90;999.90;;;;;;;4.31;38.05;98030.31;5131146;27;20080;-76
2023/04/04 07:28:36;;;;;;;1999.90;999.90;;;;;;;4.50;37.75;98011.81;5131111;27;20038;-74
2023/04/04 07:31:02;;;;;;;1999.90;999.90;;;;;;;4.44;37.98;98042.63;5130957;27;20031;-76
2023/04/04 07:33:28;;;;;;;1999.90;999.90;;;;;;;4.40;37.69;98020.66;5131130;28;20403;-75
2023/04/04 07:35:53;;;;;;;1999.90;999.90;;;;;;;4.57;37.63;98002.44;5131046;28;20031;-75
2023/04/04 07:38:19;;;;;;;1999.90;999.90;;;;;;;4.75;36.98;98021.03;5131134;27;20015;-75
2023/04/04 07:40:44;;;;;;;1999.90;999.90;;;;;;;4.87;36.97;98023.56;5131501;28;20042;-75
2023/04/04 07:43:09;;;;;;;1999.90;999.90;;;;;;;5.13;36.61;98030.84;5131247;28;20117;-77
2023/04/04 07:45:35;;;;;;;1999.90;999.90;;;;;;;5.43;36.50;98007.75;5131251;28;20471;-76
2023/04/04 07:48:01;;;;;;;1999.90;999.90;;;;;;;5.69;36.27;98023.13;5131585;28;20383;-75
2023/04/04 07:50:26;;;;;;;1999.90;999.90;;;;;;;6.02;35.34;98028.19;5131426;27;20035;-76
2023/04/04 07:52:54;;;;;;;1999.90;999.90;;;;;;;6.81;34.14;98028.75;5133758;27;20027;-76
2023/04/04 07:55:20;;;;;;;1999.90;999.90;;;;;;;7.93;32.42;98032.22;5132657;27;20027;-75
2023/04/04 07:57:46;;;;;;;1999.90;999.90;;;;;;;7.33;32.98;98042.09;5133344;27;20035;-75
2023/04/04 08:00:12;;;;;;;1999.90;999.90;;;;;;;7.86;32.05;98037.97;5135808;27;20486;-76
2023/04/04 08:02:38;;;;;;;1999.90;999.90;;;;;;;8.38;31.04;98048.47;5134994;27;20136;-75
2023/04/04 08:05:03;;;;;;;1999.90;999.90;;;;;;;9.25;30.43;98035.13;5134921;27;20529;-77
2023/04/04 08:07:29;;;;;;;1999.90;999.90;;;;;;;8.98;30.55;98035.63;5134981;27;20071;-75
2023/04/04 08:09:55;;;;;;;1999.90;999.90;;;;;;;9.11;29.43;98034.97;5134400;27;20376;-76
2023/04/04 08:12:20;;;;;;;1999.90;999.90;;;;;;;8.64;29.70;98034.72;5134486;27;20114;-76
2023/04/04 08:14:46;;;;;;;1999.90;999.90;;;;;;;8.75;29.90;98052.66;5134537;27;20030;-76
2023/04/04 08:17:11;;;;;;;1999.90;999.90;;;;;;;8.45;30.38;98026.38;5134429;27;20069;-75
2023/04/04 08:19:37;;;;;;;1999.90;999.90;;;;;;;8.68;29.99;98041.25;5134193;27;20101;-76
2023/04/04 08:22:03;;;;;;;1999.90;999.90;;;;;;;8.14;30.74;98035.72;5134066;27;20019;-75
2023/04/04 08:24:28;;;;;;;1999.90;999.90;;;;;;;8.17;30.23;98032.44;5134314;27;20031;-75
2023/04/04 08:26:53;;;;;;;1999.90;999.90;;;;;;;8.85;29.68;98022.59;5134596;27;20110;-75
2023/04/04 08:29:19;;;;;;;1999.90;999.90;;;;;;;9.79;28.63;98030.31;5134143;27;20028;-76
2023/04/04 08:31:44;;;;;;;1999.90;999.90;;;;;;;9.88;27.71;98011.34;5134193;27;20028;-77
2023/04/04 08:34:10;;;;;;;1999.90;999.90;;;;;;;9.55;28.37;98013.84;5134201;27;20475;-75
2023/04/04 08:36:35;;;;;;;1999.90;999.90;;;;;;;9.58;28.41;98029.69;5134759;27;20131;-76
2023/04/04 08:39:02;;;;;;;1999.90;999.90;;;;;;;8.75;28.87;98017.19;5134485;27;20020;-75
2023/04/04 08:41:28;;;;;;;1999.90;999.90;;;;;;;9.22;28.19;98020.16;5134932;27;20495;-75
2023/04/04 08:43:56;;;;;;;1999.90;999.90;;;;;;;10.01;27.48;98005.22;5134189;27;20464;-78
2023/04/04 08:46:23;;;;;;;1999.90;999.90;;;;;;;9.60;28.03;98000.16;5133769;27;20023;-79
2023/04/04 08:48:51;;;;;;;1999.90;999.90;;;;;;;10.05;27.66;98014.47;5133652;27;20379;-77
2023/04/04 08:51:18;;;;;;;1999.90;999.90;;;;;;;9.79;27.80;97993.97;5133503;27;20038;-75
2023/04/04 08:53:44;;;;;;;1999.90;999.90;;;;;;;9.89;27.13;97997.41;5133776;27;20498;-76
2023/04/04 08:56:10;;;;;;;1999.90;999.90;;;;;;;10.06;27.13;98005.13;5133749;27;20134;-75
2023/04/04 08:58:39;;;;;;;1999.90;999.90;;;;;;;9.83;27.88;98004.03;5133739;27;20364;-75
2023/04/04 09:01:06;;;;;;;1999.90;999.90;;;;;;;9.54;27.86;97995.84;5133427;27;20023;-76
2023/04/04 09:03:33;;;;;;;1999.90;999.90;;;;;;;9.20;28.16;97995.06;5133692;27;20080;-76
2023/04/04 09:06:00;;;;;;;1999.90;999.90;;;;;;;9.66;27.02;97985.34;5133595;27;20019;-76
2023/04/04 09:08:27;;;;;;;1999.90;999.90;;;;;;;10.11;27.28;97984.06;5133079;27;20092;-76
2023/04/04 09:10:53;;;;;;;1999.90;999.90;;;;;;;9.53;26.84;97998.88;5133425;27;20027;-74
2023/04/04 09:13:19;;;;;;;1999.90;999.90;;;;;;;8.93;27.73;97994.72;5133459;27;20034;-75
2023/04/04 09:15:47;;;;;;;1999.90;999.90;;;;;;;10.72;26.52;97989.56;5133369;27;20024;-76
2023/04/04 09:18:12;;;;;;;1999.90;999.90;;;;;;;10.79;25.86;98015.72;5135303;27;20125;-83
2023/04/04 09:20:39;;;;;;;1999.90;999.90;;;;;;;10.19;25.89;97986.16;5134277;27;20136;-75
2023/04/04 09:23:06;;;;;;;1999.90;999.90;;;;;;;9.97;26.34;97982.28;5133122;27;20015;-76
2023/04/04 09:25:32;;;;;;;1999.90;999.90;;;;;;;9.58;25.91;97969.63;5114623;27;20033;-76
2023/04/04 09:28:00;;;;;;;1999.90;999.90;;;;;;;8.71;27.13;97992.41;5132974;27;20110;-77
2023/04/04 09:30:26;;;;;;;1999.90;999.90;;;;;;;9.52;26.73;97976.19;5133043;27;20031;-77
2023/04/04 09:32:51;;;;;;;1999.90;999.90;;;;;;;9.87;26.65;97955.06;5133449;27;20034;-78
2023/04/04 09:35:19;;;;;;;1999.90;999.90;;;;;;;9.78;26.27;97954.09;5133003;27;20027;-83
2023/04/04 09:37:45;;;;;;;1999.90;999.90;;;;;;;9.53;25.76;97958.72;5133124;27;20023;-81
2023/04/04 09:40:12;;;;;;;1999.90;999.90;;;;;;;8.55;27.21;97955.44;5133255;27;20114;-76
2023/04/04 09:42:37;;;;;;;1999.90;999.90;;;;;;;9.93;25.83;97970.34;5132865;27;20031;-75
2023/04/04 09:45:04;;;;;;;1999.90;999.90;;;;;;;10.20;26.06;97956.91;5133117;27;20387;-75
2023/04/04 09:47:32;;;;;;;1999.90;999.90;;;;;;;10.21;26.13;97961.28;5133085;27;20031;-75
2023/04/04 09:50:03;;;;;;;1999.90;999.90;;;;;;;8.89;27.14;97953.56;5133355;27;20398;-76
2023/04/04 09:52:37;;;;;;;1999.90;999.90;;;;;;;9.70;26.32;97952.81;5132548;27;20031;-76
2023/04/04 09:55:04;;;;;;;1999.90;999.90;;;;;;;10.23;26.05;97969.16;5132782;27;20368;-80
2023/04/04 09:57:36;;;;;;;1999.90;999.90;;;;;;;9.49;26.78;97957.66;5114019;27;20516;-77
2023/04/04 10:00:10;;;;;;;1999.90;999.90;;;;;;;9.71;26.01;97950.91;5113790;27;20038;-76
2023/04/04 10:02:45;;;;;;;1999.90;999.90;;;;;;;10.18;26.08;97939.97;5132375;27;20491;-74
2023/04/04 10:05:11;;;;;;;1999.90;999.90;;;;;;;10.70;25.57;97950.75;5132464;27;20106;-79
2023/04/04 10:07:38;;;;;;;1999.90;999.90;;;;;;;9.79;26.23;97963.91;5134494;27;20116;-80
2023/04/04 10:10:06;;;;;;;1999.90;999.90;;;;;;;10.00;26.01;97948.91;5135655;27;20030;-75
2023/04/04 10:12:31;;;;;;;1999.90;999.90;;;;;;;9.41;26.14;97947.38;5115013;27;20197;-75
2023/04/04 10:15:01;;;;;;;1999.90;999.90;;;;;;;10.21;25.92;97933.94;5132417;27;20487;-78
2023/04/04 10:17:40;;;;;;;1999.90;999.90;;;;;;;10.56;25.05;97941.63;5132161;27;20044;-75
2023/04/04 10:20:09;;;;;;;1999.90;999.90;;;;;;;10.96;25.06;97933.94;5134987;27;20542;-75
2023/04/04 10:22:36;;;;;;;1999.90;999.90;;;;;;;10.93;24.70;97940.00;5132020;27;20035;-75
2023/04/04 10:25:04;;;;;;;1999.90;999.90;;;;;;;8.99;26.19;97920.75;5132107;27;20031;-76
2023/04/04 10:27:30;;;;;;;1999.90;999.90;;;;;;;10.23;25.97;97920.78;5132018;27;20027;-77
2023/04/04 10:29:56;;;;;;;1999.90;999.90;;;;;;;10.27;25.90;97921.84;5113754;27;20386;-75
2023/04/04 10:32:42;;;;;;;1999.90;999.90;;;;;;;10.28;25.66;97907.03;5131753;27;20035;-76
2023/04/04 10:35:10;;;;;;;1999.90;999.90;;;;;;;10.31;25.22;97905.63;5131732;27;20043;-75
2023/04/04 10:37:49;;;;;;;1999.90;999.90;;;;;;;10.98;24.81;97912.56;5132151;27;20486;-77
2023/04/04 10:40:16;;;;;;;1999.90;999.90;;;;;;;10.44;25.29;97937.72;5133127;27;20050;-77
2023/04/04 10:42:45;;;;;;;1999.90;999.90;;;;;;;9.93;26.02;97904.75;5134404;27;20023;-76
2023/04/04 10:45:13;;;;;;;1999.90;999.90;;;;;;;10.31;25.49;97892.78;5113018;28;20027;-76
2023/04/04 10:47:40;;;;;;;1999.90;999.90;;;;;;;9.75;25.77;97900.84;5131492;27;20019;-76
2023/04/04 10:50:08;;;;;;;1999.90;999.90;;;;;;;10.09;24.98;97900.69;5131323;27;20118;-77
2023/04/04 10:52:35;;;;;;;1999.90;999.90;;;;;;;10.07;25.54;97905.66;5131300;28;20035;-76
2023/04/04 10:55:05;;;;;;;1999.90;999.90;;;;;;;10.07;25.49;97887.34;5131631;27;20114;-75
2023/04/04 10:57:31;;;;;;;1999.90;999.90;;;;;;;9.52;26.04;97894.28;5131470;28;20509;-75